Miami, FL

8:49 AM EDT on August 04, 2015 (GMT -0400)
DV Floral Group | | Change Station
CLOSE
Current Station
Personal Weather Station
Location: Miami, FL
Elevation: 26 ft
Nearby Weather Stations

Elev 26 ft 25.79 °N, 80.35 °W | Updated 4 minutes ago

Scattered Clouds
Scattered Clouds
85.7 °F
Feels Like 98 °F
N
2.0
Wind Variable Wind from ESE
Gusts 2.0 mph

Today
High -- | Low -- °F
--% Chance of Precip.
Yesterday
High -- | Low -- °F
Precip. -- in
6:48 AM 8:05 PM
Waning Gibbous, 78% visible
Pressure 30.04 in
Visibility 10.0 miles
Clouds Few 2000 ft
Few 11000 ft
Scattered Clouds 25000 ft
Heat Index 98 °F
Dew Point 78 °F
Humidity 78%
Rainfall 0.00 in
Snow Depth Not available.
UV 1 out of 12
Pollen 3.00 out of 12
Air Quality Not available.
Flu Activity Not available.
METAR KMIA 041153Z COR 00000KT 10SM FEW020TCU FEW110 SCT250 28/23 A3004 RMK AO2 SLP173 TCU SW 70004 T02780233 10278 20244 53010

More Conditions Fewer Conditions

Pressure 30.04 in
Visibility 10.0 miles
Clouds Few 2000 ft
Few 11000 ft
Scattered Clouds 25000 ft
Heat Index 98 °F
Dew Point 78 °F
Humidity 78%
Rainfall 0.00 in
Snow Depth Not available.
UV 1 out of 12
Pollen 3.00 out of 12
Air Quality Not available.
Flu Activity Not available.
METAR KMIA 041153Z COR 00000KT 10SM FEW020TCU FEW110 SCT250 28/23 A3004 RMK AO2 SLP173 TCU SW 70004 T02780233 10278 20244 53010

More Conditions Fewer Conditions

10-Day Weather Forecast

×

Almanac

Astronomy

Aug. 04, 2015 Rise Set
Actual Time
Civil Twilight
Nautical Twilight
Astronomical Twilight
Moon
Length of Visible Light
Length of Day
Tomorrow will be .
, % of the Moon is Illuminated

Today's Extremes

State Highs State Lows

Community

WunderPhotos

Upload Photos

1,843,913 photos uploaded!

WunderBlogs® & News

Nearby

Air Quality

  Air Quality AQ Index Pollutant
Not available.

Snow Depth

Station Depth Elevation

Earthquake Activity

City Distance Mag. Time & Date
Minimum magnitude displayed is 2.5.

Coastal Water Temperatures

Place Temperature

Stations

Nearby Weather Stations

Station Location Temp. Windchill Dew Point Humidity Wind Precip. Elev Updated Type